| time (UTC) | temp F | wind direction | speed MPH | gust MPH | rain 1hr in | rain 24hr in | rain mn in | humidity % | barometer mb |
| 20260510111556 | 48 | 0 | 2.0 | 6.0 | 0.00 | 0.40 | 0.00 | 82 | 1013.0 |
| 20260510110055 | 48 | 347 | 0.0 | 3.0 | 0.00 | 0.40 | 0.00 | 85 | 1012.8 |
| 20260510104556 | 47 | 0 | 0.0 | 3.0 | 0.00 | 0.40 | 0.00 | 85 | 1012.2 |
| 20260510103108 | 47 | 0 | 0.0 | 3.0 | 0.00 | 0.40 | 0.00 | 85 | 1011.9 |
| 20260510101607 | 47 | 41 | 0.0 | 2.0 | 0.00 | 0.40 | 0.00 | 85 | 1011.7 |
| 20260510100104 | 48 | 15 | 0.0 | 4.0 | 0.00 | 0.40 | 0.00 | 84 | 1011.5 |
| 20260510094557 | 48 | 333 | 0.0 | 3.0 | 0.00 | 0.40 | 0.00 | 85 | 1011.4 |
| 20260510093056 | 47 | 0 | 0.0 | 2.0 | 0.00 | 0.40 | 0.00 | 89 | 1011.2 |
| 20260510091558 | 47 | 0 | 0.0 | 0.0 | 0.00 | 0.40 | 0.00 | 89 | 1010.8 |
| 20260510090056 | 47 | 0 | 0.0 | 0.0 | 0.00 | 0.40 | 0.00 | 88 | 1010.6 |
| 20260510084558 | 47 | 0 | 0.0 | 0.0 | 0.00 | 0.40 | 0.00 | 87 | 1010.3 |
| 20260510083055 | 47 | 0 | 0.0 | 0.0 | 0.00 | 0.40 | 0.00 | 86 | 1010.3 |
| 20260510081601 | 48 | 0 | 0.0 | 0.0 | 0.00 | 0.40 | 0.00 | 85 | 1010.1 |
| 20260510080056 | 48 | 0 | 0.0 | 0.0 | 0.00 | 0.40 | 0.00 | 83 | 1009.9 |
| 20260510074600 | 49 | 0 | 0.0 | 1.0 | 0.00 | 0.40 | 0.00 | 81 | 1009.4 |
| 20260510073110 | 50 | 0 | 0.0 | 2.0 | 0.00 | 0.40 | 0.00 | 79 | 1009.4 |
| 20260510071558 | 51 | 0 | 1.0 | 3.0 | 0.00 | 0.40 | 0.00 | 78 | 1009.2 |
| 20260510070059 | 52 | 0 | 0.0 | 4.0 | 0.00 | 0.40 | 0.00 | 78 | 1009.1 |
| 20260510064559 | 52 | 0 | 1.0 | 4.0 | 0.00 | 0.40 | 0.00 | 78 | 1008.6 |
| 20260510063058 | 52 | 0 | 1.0 | 8.0 | 0.00 | 0.40 | 0.00 | 81 | 1008.5 |
| 20260510061603 | 52 | 336 | 2.0 | 9.0 | 0.00 | 0.40 | 0.00 | 82 | 1008.6 |
| 20260510060055 | 53 | 75 | 3.0 | 10.0 | 0.00 | 0.40 | 0.00 | 83 | 1008.4 |
| 20260510054601 | 55 | 81 | 4.0 | 10.0 | 0.00 | 0.40 | 0.00 | 88 | 1008.0 |
| 20260510053059 | 55 | 0 | 0.0 | 0.0 | 0.00 | 0.40 | 0.00 | 88 | 1007.8 |
| 20260510051554 | 56 | 0 | 2.0 | 6.0 | 0.00 | 0.40 | 0.00 | 87 | 1007.7 |
| 20260510050056 | 55 | 290 | 0.0 | 3.0 | 0.00 | 0.40 | 0.00 | 87 | 1007.3 |
| 20260510044555 | 56 | 342 | 2.0 | 4.0 | 0.00 | 0.40 | 0.00 | 87 | 1006.9 |
| 20260510043057 | 56 | 274 | 1.0 | 3.0 | 0.02 | 0.40 | 0.00 | 86 | 1006.3 |
| 20260510041627 | 55 | 233 | 1.0 | 3.0 | 0.03 | 0.40 | 0.00 | 87 | 1006.2 |
| 20260510040056 | 56 | 0 | 0.0 | 5.0 | 0.04 | 0.40 | 0.00 | 87 | 1005.9 |
| 20260510034602 | 57 | 0 | 1.0 | 10.0 | 0.04 | 0.40 | 0.40 | 86 | 1006.0 |
| 20260510033121 | 56 | 176 | 2.0 | 8.0 | 0.02 | 0.38 | 0.38 | 87 | 1005.9 |
| 20260510031602 | 56 | 210 | 2.0 | 4.0 | 0.01 | 0.37 | 0.37 | 87 | 1006.1 |
| 20260510030100 | 56 | 206 | 2.0 | 5.0 | 0.00 | 0.36 | 0.36 | 86 | 1006.1 |
| 20260510024612 | 55 | 238 | 1.0 | 2.0 | 0.00 | 0.37 | 0.36 | 88 | 1006.0 |
| 20260510023107 | 56 | 229 | 1.0 | 9.0 | 0.00 | 0.37 | 0.36 | 88 | 1005.7 |
| 20260510021559 | 55 | 263 | 2.0 | 6.0 | 0.00 | 0.37 | 0.36 | 92 | 1006.6 |
| 20260510020058 | 54 | 0 | 0.0 | 1.0 | 0.00 | 0.37 | 0.36 | 92 | 1005.7 |
| 20260510014616 | 54 | 0 | 0.0 | 0.0 | 0.00 | 0.37 | 0.36 | 92 | 1005.7 |
| 20260510013105 | 54 | 0 | 0.0 | 0.0 | 0.00 | 0.37 | 0.36 | 92 | 1005.5 |
| 20260510011602 | 54 | 0 | 0.0 | 0.0 | 0.00 | 0.37 | 0.36 | 91 | 1005.4 |
| 20260510010055 | 54 | 0 | 0.0 | 0.0 | 0.00 | 0.37 | 0.36 | 91 | 1005.3 |
| 20260510004603 | 55 | 0 | 0.0 | 1.0 | 0.00 | 0.40 | 0.36 | 90 | 1005.2 |
| 20260510003057 | 56 | 0 | 0.0 | 2.0 | 0.00 | 0.40 | 0.36 | 89 | 1005.2 |
| 20260510001558 | 56 | 236 | 1.0 | 5.0 | 0.02 | 0.40 | 0.36 | 88 | 1005.3 |
| 20260510000058 | 57 | 252 | 0.0 | 4.0 | 0.14 | 0.40 | 0.36 | 88 | 1005.2 |
| 20260509234556 | 57 | 217 | 0.0 | 4.0 | 0.31 | 0.46 | 0.36 | 90 | 1005.1 |
| 20260509233057 | 56 | 255 | 0.0 | 5.0 | 0.36 | 0.46 | 0.36 | 91 | 1005.3 |
| 20260509231608 | 56 | 160 | 1.0 | 14.0 | 0.34 | 0.44 | 0.34 | 90 | 1005.3 |
| 20260509230057 | 56 | 289 | 4.0 | 14.0 | 0.22 | 0.32 | 0.22 | 89 | 1005.5 |
| 20260509224558 | 60 | 302 | 8.0 | 17.0 | 0.05 | 0.20 | 0.05 | 81 | 1004.5 |
| 20260509223056 | 69 | 162 | 3.0 | 9.0 | 0.00 | 0.15 | 0.00 | 55 | 1003.0 |
| 20260509221558 | 70 | 202 | 3.0 | 12.0 | 0.00 | 0.15 | 0.00 | 55 | 1002.4 |
| 20260509220058 | 70 | 229 | 3.0 | 15.0 | 0.00 | 0.15 | 0.00 | 54 | 1002.7 |
| 20260509214555 | 71 | 207 | 5.0 | 17.0 | 0.00 | 0.17 | 0.00 | 54 | 1002.5 |
| 20260509213056 | 72 | 172 | 5.0 | 18.0 | 0.00 | 0.17 | 0.00 | 55 | 1002.3 |
| 20260509211601 | 72 | 240 | 4.0 | 14.0 | 0.00 | 0.17 | 0.00 | 55 | 1002.5 |
| 20260509210109 | 72 | 202 | 4.0 | 12.0 | 0.00 | 0.17 | 0.00 | 55 | 1002.6 |
| 20260509204558 | 72 | 179 | 5.0 | 17.0 | 0.00 | 0.17 | 0.00 | 55 | 1002.9 |
| 20260509203057 | 71 | 233 | 6.0 | 16.0 | 0.00 | 0.17 | 0.00 | 56 | 1002.9 |
| 20260509201558 | 71 | 214 | 5.0 | 17.0 | 0.00 | 0.17 | 0.00 | 57 | 1003.2 |
| 20260509200057 | 71 | 169 | 5.0 | 16.0 | 0.00 | 0.17 | 0.00 | 56 | 1003.4 |
| 20260509194558 | 71 | 281 | 3.0 | 11.0 | 0.00 | 0.17 | 0.00 | 57 | 1003.7 |
| 20260509193102 | 71 | 233 | 4.0 | 16.0 | 0.00 | 0.17 | 0.00 | 57 | 1003.8 |
| 20260509191554 | 70 | 257 | 4.0 | 12.0 | 0.00 | 0.17 | 0.00 | 59 | 1004.2 |
| 20260509190056 | 69 | 179 | 4.0 | 17.0 | 0.00 | 0.17 | 0.00 | 60 | 1004.6 |
| 20260509184554 | 68 | 231 | 5.0 | 15.0 | 0.00 | 0.17 | 0.00 | 61 | 1004.5 |
| 20260509183059 | 68 | 134 | 5.0 | 11.0 | 0.00 | 0.17 | 0.00 | 62 | 1004.7 |
| 20260509181555 | 68 | 199 | 6.0 | 16.0 | 0.00 | 0.17 | 0.00 | 60 | 1004.6 |
| 20260509180057 | 69 | 292 | 6.0 | 15.0 | 0.00 | 0.17 | 0.00 | 60 | 1004.5 |
| 20260509174555 | 68 | 231 | 5.0 | 13.0 | 0.00 | 0.17 | 0.00 | 62 | 1004.5 |
| 20260509173118 | 67 | 120 | 4.0 | 17.0 | 0.00 | 0.17 | 0.00 | 65 | 1004.9 |
| 20260509171556 | 67 | 209 | 3.0 | 12.0 | 0.00 | 0.17 | 0.00 | 64 | 1004.8 |
| 20260509170112 | 67 | 176 | 2.0 | 9.0 | 0.00 | 0.17 | 0.00 | 64 | 1004.8 |
| 20260509164602 | 66 | 187 | 2.0 | 11.0 | 0.00 | 0.17 | 0.00 | 65 | 1004.8 |
| 20260509163053 | 65 | 241 | 3.0 | 9.0 | 0.00 | 0.17 | 0.00 | 68 | 1004.7 |
| 20260509161556 | 63 | 182 | 2.0 | 5.0 | 0.00 | 0.17 | 0.00 | 70 | 1005.1 |
| 20260509160059 | 62 | 166 | 1.0 | 12.0 | 0.00 | 0.17 | 0.00 | 74 | 1005.4 |
| 20260509154555 | 62 | 219 | 2.0 | 7.0 | 0.00 | 0.17 | 0.00 | 75 | 1005.6 |
| 20260509153054 | 62 | 255 | 2.0 | 11.0 | 0.00 | 0.17 | 0.00 | 74 | 1005.7 |
| 20260509151616 | 63 | 203 | 2.0 | 11.0 | 0.00 | 0.17 | 0.00 | 75 | 1005.5 |
| 20260509150055 | 61 | 236 | 2.0 | 8.0 | 0.00 | 0.17 | 0.00 | 78 | 1005.5 |
| 20260509144558 | 60 | 262 | 1.0 | 6.0 | 0.00 | 0.17 | 0.00 | 79 | 1005.5 |
| 20260509143105 | 59 | 249 | 1.0 | 4.0 | 0.00 | 0.17 | 0.00 | 83 | 1005.5 |
| 20260509141554 | 58 | 238 | 2.0 | 7.0 | 0.00 | 0.17 | 0.00 | 84 | 1005.5 |
| 20260509140053 | 57 | 206 | 1.0 | 7.0 | 0.00 | 0.17 | 0.00 | 85 | 1005.7 |
| 20260509134559 | 57 | 129 | 2.0 | 6.0 | 0.00 | 0.17 | 0.00 | 86 | 1005.5 |
| 20260509133058 | 57 | 243 | 3.0 | 8.0 | 0.00 | 0.17 | 0.00 | 86 | 1005.6 |
| 20260509131604 | 56 | 229 | 2.0 | 7.0 | 0.00 | 0.17 | 0.00 | 88 | 1005.5 |
| 20260509130126 | 55 | 141 | 1.0 | 6.0 | 0.00 | 0.17 | 0.00 | 89 | 1005.5 |
| 20260509124556 | 55 | 156 | 1.0 | 6.0 | 0.00 | 0.17 | 0.00 | 89 | 1005.6 |
| 20260509123120 | 55 | 233 | 2.0 | 7.0 | 0.00 | 0.17 | 0.00 | 89 | 1005.7 |
| 20260509121554 | 54 | 162 | 2.0 | 4.0 | 0.00 | 0.17 | 0.00 | 89 | 1005.8 |
| 20260509120056 | 54 | 226 | 1.0 | 6.0 | 0.00 | 0.17 | 0.00 | 90 | 1005.9 |
| 20260509114626 | 54 | 236 | 2.0 | 5.0 | 0.00 | 0.17 | 0.00 | 90 | 1005.8 |
| 20260509113124 | 54 | 0 | 1.0 | 5.0 | 0.00 | 0.17 | 0.00 | 90 | 1005.8 |